Terminal Aerodrome Forecast
Issued by NWS

Home | Current Version | Previous Version | Text Only | Print | Product List | Glossary On
Versions: 1 2 3 4 5 6 7 8 9 10 11 12 13 14 15 16 17 18 19 20 21 22 23 24
000
FTUS41 KOKX 231515 AAB
TAFSWF
TAF AMD
KSWF 231515Z 2315/2418 19007KT P6SM OVC012
     FM231900 15009KT P6SM BKN030
     FM240000 16012KT 6SM -DZ BR SCT008 BKN025
     FM240800 16014G20KT 5SM SHRA BR SCT008 BKN015
     FM241500 15013G24KT 4SM SHRA BR BKN008
      AMD NOT SKED=

USA.gov is the U.S. government's official web portal to all federal, state and local government web resources and services.